createdAt,value
2023-02-06T00:00:32.097Z,92
2023-02-06T00:01:31.739Z,92
2023-02-06T00:02:32.212Z,92
2023-02-06T00:03:32.094Z,92
2023-02-06T00:04:32.096Z,92
2023-02-06T00:05:31.819Z,92
2023-02-06T00:06:32.105Z,92
2023-02-06T00:07:32.103Z,92
2023-02-06T00:08:32.072Z,92
2023-02-06T00:09:31.737Z,92
2023-02-06T00:10:32.183Z,92
2023-02-06T00:11:32.107Z,92
2023-02-06T00:12:32.072Z,93
2023-02-06T00:13:31.745Z,93
2023-02-06T00:14:32.113Z,93
2023-02-06T00:15:32.109Z,93
2023-02-06T00:16:32.100Z,93
2023-02-06T00:17:31.922Z,93
2023-02-06T00:18:32.132Z,93
2023-02-06T00:19:32.088Z,93
2023-02-06T00:20:32.083Z,93
2023-02-06T00:21:31.720Z,93
2023-02-06T00:22:32.058Z,93
2023-02-06T00:23:32.122Z,93
2023-02-06T00:24:32.111Z,93
2023-02-06T00:25:31.689Z,93
2023-02-06T00:26:32.178Z,93
2023-02-06T00:27:32.107Z,93
2023-02-06T00:28:32.097Z,93
2023-02-06T00:29:31.745Z,93
2023-02-06T00:30:32.136Z,93
2023-02-06T00:31:32.178Z,93
2023-02-06T00:32:32.103Z,93
2023-02-06T00:33:31.763Z,93
2023-02-06T00:34:32.100Z,93
2023-02-06T00:35:32.106Z,93
2023-02-06T00:36:32.088Z,93
2023-02-06T00:37:31.706Z,93
2023-02-06T00:38:32.120Z,93
2023-02-06T00:39:32.176Z,93
2023-02-06T00:40:32.085Z,93
2023-02-06T00:41:31.718Z,93
2023-02-06T00:42:32.161Z,93
2023-02-06T00:43:32.196Z,93
2023-02-06T00:44:32.124Z,92
2023-02-06T00:45:31.718Z,92
2023-02-06T00:46:32.395Z,92
2023-02-06T00:47:32.109Z,92
2023-02-06T00:48:32.117Z,92
2023-02-06T00:49:31.759Z,92
2023-02-06T00:50:32.080Z,92
2023-02-06T00:51:32.125Z,92
2023-02-06T00:52:32.113Z,92
2023-02-06T00:53:31.756Z,91
2023-02-06T00:54:32.186Z,91
2023-02-06T00:55:32.089Z,91
2023-02-06T00:56:32.081Z,91
2023-02-06T00:57:31.712Z,91
2023-02-06T00:58:32.095Z,91
2023-02-06T00:59:32.110Z,91
2023-02-06T01:00:32.086Z,91
2023-02-06T01:01:31.772Z,91
2023-02-06T01:02:32.174Z,91
2023-02-06T01:03:32.123Z,91
2023-02-06T01:04:32.089Z,91
2023-02-06T01:05:31.780Z,91
2023-02-06T01:06:32.122Z,91
2023-02-06T01:07:32.101Z,91
2023-02-06T01:08:32.106Z,91
2023-02-06T01:09:31.692Z,91
2023-02-06T01:10:32.076Z,91
2023-02-06T01:11:32.141Z,91
2023-02-06T01:12:32.148Z,91
2023-02-06T01:13:31.707Z,91
2023-02-06T01:14:32.083Z,91
2023-02-06T01:15:32.107Z,91
2023-02-06T01:16:33.133Z,91
2023-02-06T01:17:31.743Z,91
2023-02-06T01:18:32.110Z,91
2023-02-06T01:19:32.081Z,91
2023-02-06T01:20:32.071Z,91
2023-02-06T01:21:31.780Z,90
2023-02-06T01:22:32.089Z,90
2023-02-06T01:23:32.123Z,90
2023-02-06T01:24:32.105Z,90
2023-02-06T01:25:31.774Z,90
2023-02-06T01:26:32.074Z,90
2023-02-06T01:27:32.079Z,90
2023-02-06T01:28:32.075Z,90
2023-02-06T01:29:31.758Z,90
2023-02-06T01:30:32.167Z,90
2023-02-06T01:31:32.130Z,90
2023-02-06T01:32:32.120Z,90
2023-02-06T01:33:31.728Z,90
2023-02-06T01:34:32.069Z,90
2023-02-06T01:35:32.097Z,90
2023-02-06T01:36:32.097Z,90
2023-02-06T01:37:31.737Z,90
2023-02-06T01:38:32.116Z,90
2023-02-06T01:39:32.100Z,90
2023-02-06T01:40:32.181Z,89
2023-02-06T01:41:31.890Z,89
2023-02-06T01:42:32.242Z,89
2023-02-06T01:43:32.208Z,89
2023-02-06T01:44:32.222Z,89
2023-02-06T01:45:31.829Z,89
2023-02-06T01:46:32.291Z,89
2023-02-06T01:47:32.218Z,89
2023-02-06T01:48:32.210Z,88
2023-02-06T01:49:31.868Z,88
2023-02-06T01:50:32.187Z,88
2023-02-06T01:51:32.256Z,88
2023-02-06T01:52:32.253Z,88
2023-02-06T01:53:31.927Z,88
2023-02-06T01:54:32.219Z,88
2023-02-06T01:55:32.074Z,88
2023-02-06T01:56:32.141Z,88
2023-02-06T01:57:31.762Z,88
2023-02-06T01:58:32.135Z,88
2023-02-06T01:59:32.061Z,88
2023-02-06T02:00:32.115Z,88
2023-02-06T02:01:31.741Z,88
2023-02-06T02:02:32.086Z,88
2023-02-06T02:03:32.085Z,88
2023-02-06T02:04:32.048Z,88
2023-02-06T02:05:31.724Z,88
2023-02-06T02:06:32.063Z,88
2023-02-06T02:07:32.108Z,88
2023-02-06T02:08:32.064Z,88
2023-02-06T02:09:31.741Z,88
2023-02-06T02:10:32.066Z,88
2023-02-06T02:11:32.083Z,88
2023-02-06T02:12:32.058Z,88
2023-02-06T02:13:31.778Z,87
2023-02-06T02:14:32.101Z,87
2023-02-06T02:15:32.079Z,87
2023-02-06T02:16:32.125Z,87
2023-02-06T02:17:31.753Z,87
2023-02-06T02:18:32.110Z,87
2023-02-06T02:19:32.089Z,87
2023-02-06T02:20:32.431Z,87
2023-02-06T02:21:31.784Z,87
2023-02-06T02:22:32.123Z,87
2023-02-06T02:23:32.110Z,87
2023-02-06T02:24:32.066Z,87
2023-02-06T02:25:31.786Z,87
2023-02-06T02:26:32.118Z,87
2023-02-06T02:27:32.065Z,87
2023-02-06T02:28:32.098Z,87
2023-02-06T02:29:31.721Z,87
2023-02-06T02:30:32.195Z,87
2023-02-06T02:31:32.154Z,87
2023-02-06T02:32:32.096Z,88
2023-02-06T02:33:31.717Z,88
2023-02-06T02:34:32.089Z,88
2023-02-06T02:35:32.087Z,88
2023-02-06T02:36:32.077Z,88
2023-02-06T02:37:31.723Z,88
2023-02-06T02:38:32.109Z,88
2023-02-06T02:39:32.082Z,88
2023-02-06T02:40:32.077Z,88
2023-02-06T02:41:31.726Z,88
2023-02-06T02:42:32.215Z,88
2023-02-06T02:43:32.085Z,88
2023-02-06T02:44:32.090Z,88
2023-02-06T02:45:31.719Z,88
2023-02-06T02:46:32.092Z,88
2023-02-06T02:47:38.086Z,88
2023-02-06T02:48:32.093Z,88
2023-02-06T02:49:31.714Z,88
2023-02-06T02:50:32.097Z,88
2023-02-06T02:51:32.091Z,88
2023-02-06T02:52:32.095Z,88
2023-02-06T02:53:31.736Z,88
2023-02-06T02:54:32.090Z,88
2023-02-06T02:55:32.093Z,88
2023-02-06T02:56:32.078Z,88
2023-02-06T02:57:31.718Z,88
2023-02-06T02:58:32.121Z,88
2023-02-06T02:59:32.039Z,88
2023-02-06T03:00:32.089Z,88
2023-02-06T03:01:31.741Z,88
2023-02-06T03:02:32.159Z,88
2023-02-06T03:03:32.133Z,88
2023-02-06T03:04:32.054Z,88
2023-02-06T03:05:31.708Z,87
2023-02-06T03:06:32.137Z,88
2023-02-06T03:07:32.083Z,87
2023-02-06T03:08:32.118Z,88
2023-02-06T03:09:31.730Z,88
2023-02-06T03:10:32.145Z,88
2023-02-06T03:11:32.219Z,88
2023-02-06T03:12:32.069Z,88
2023-02-06T03:13:31.872Z,88
2023-02-06T03:14:32.092Z,88
2023-02-06T03:15:32.073Z,88
2023-02-06T03:16:32.237Z,88
2023-02-06T03:17:31.814Z,88
2023-02-06T03:18:32.069Z,88
2023-02-06T03:19:32.087Z,88
2023-02-06T03:20:32.125Z,88
2023-02-06T03:21:31.819Z,88
2023-02-06T03:22:32.044Z,88
2023-02-06T03:23:32.073Z,88
2023-02-06T03:24:32.083Z,88
2023-02-06T03:25:31.809Z,88
2023-02-06T03:26:32.133Z,88
2023-02-06T03:27:32.067Z,88
2023-02-06T03:28:32.085Z,88
2023-02-06T03:29:31.765Z,88
2023-02-06T03:30:32.077Z,88
2023-02-06T03:31:32.200Z,88
2023-02-06T03:32:32.207Z,88
2023-02-06T03:33:31.770Z,88
2023-02-06T03:34:32.087Z,88
2023-02-06T03:35:32.126Z,88
2023-02-06T03:36:32.197Z,88
2023-02-06T03:37:31.729Z,89
2023-02-06T03:38:32.235Z,89
2023-02-06T03:39:32.100Z,89
2023-02-06T03:40:32.214Z,89
2023-02-06T03:41:31.751Z,89
2023-02-06T03:42:32.136Z,89
2023-02-06T03:43:32.141Z,89
2023-02-06T03:44:32.105Z,89
2023-02-06T03:45:31.792Z,89
2023-02-06T03:46:32.089Z,89
2023-02-06T03:47:32.126Z,89
2023-02-06T03:48:32.088Z,89
2023-02-06T03:49:31.938Z,89
2023-02-06T03:50:32.200Z,89
2023-02-06T03:51:32.207Z,89
2023-02-06T03:52:32.071Z,89
2023-02-06T03:53:31.713Z,89
2023-02-06T03:54:32.103Z,89
2023-02-06T03:55:32.054Z,89
2023-02-06T03:56:32.065Z,89
2023-02-06T03:57:31.812Z,89
2023-02-06T03:58:32.033Z,89
2023-02-06T03:59:32.158Z,89
2023-02-06T04:00:32.074Z,89
2023-02-06T04:01:31.812Z,89
2023-02-06T04:02:32.086Z,89
2023-02-06T04:03:32.051Z,89
2023-02-06T04:04:32.097Z,89
2023-02-06T04:05:31.808Z,89
2023-02-06T04:06:32.066Z,89
2023-02-06T04:07:32.065Z,89
2023-02-06T04:08:32.089Z,89
2023-02-06T04:09:31.738Z,89
2023-02-06T04:10:32.078Z,89
2023-02-06T04:11:32.097Z,89
2023-02-06T04:12:32.073Z,89
2023-02-06T04:13:31.767Z,89
2023-02-06T04:14:32.058Z,89
2023-02-06T04:15:32.084Z,89
2023-02-06T04:16:32.118Z,89
2023-02-06T04:17:46.334Z,88
2023-02-06T04:18:32.137Z,88
2023-02-06T04:19:32.186Z,88
2023-02-06T04:20:32.088Z,88
2023-02-06T04:21:31.743Z,88
2023-02-06T04:22:32.097Z,88
2023-02-06T04:23:32.075Z,88
2023-02-06T04:24:32.090Z,88
2023-02-06T04:25:31.720Z,88
2023-02-06T04:26:32.096Z,88
2023-02-06T04:27:32.097Z,88
2023-02-06T04:28:32.077Z,88
2023-02-06T04:29:31.759Z,88
2023-02-06T04:30:32.083Z,88
2023-02-06T04:31:32.169Z,88
2023-02-06T04:32:32.066Z,88
2023-02-06T04:33:31.782Z,88
2023-02-06T04:34:32.034Z,88
2023-02-06T04:35:32.095Z,88
2023-02-06T04:36:32.066Z,88
2023-02-06T04:37:31.874Z,88
2023-02-06T04:38:32.052Z,88
2023-02-06T04:39:32.146Z,88
2023-02-06T04:40:32.164Z,88
2023-02-06T04:41:31.745Z,88
2023-02-06T04:42:32.057Z,88
2023-02-06T04:43:32.105Z,88
2023-02-06T04:44:32.065Z,88
2023-02-06T04:45:31.775Z,88
2023-02-06T04:46:32.092Z,88
2023-02-06T04:47:32.065Z,88
2023-02-06T04:48:32.085Z,88
2023-02-06T04:49:31.838Z,88
2023-02-06T04:50:32.112Z,88
2023-02-06T04:51:32.179Z,88
2023-02-06T04:52:32.089Z,88
2023-02-06T04:53:31.779Z,88
2023-02-06T04:54:32.826Z,88
2023-02-06T04:55:32.110Z,88
2023-02-06T04:56:32.091Z,88
2023-02-06T04:57:31.733Z,88
2023-02-06T04:58:32.047Z,88
2023-02-06T04:59:32.112Z,88
2023-02-06T05:00:32.082Z,88
2023-02-06T05:01:31.821Z,88
2023-02-06T05:02:32.088Z,88
2023-02-06T05:03:32.088Z,88
2023-02-06T05:04:32.114Z,88
2023-02-06T05:05:31.789Z,88
2023-02-06T05:06:32.108Z,88
2023-02-06T05:07:32.091Z,88
2023-02-06T05:08:32.050Z,88
2023-02-06T05:09:31.760Z,88
2023-02-06T05:10:32.024Z,88
2023-02-06T05:11:32.073Z,88
2023-02-06T05:12:32.069Z,88
2023-02-06T05:13:31.740Z,88
2023-02-06T05:14:32.069Z,88
2023-02-06T05:15:32.092Z,88
2023-02-06T05:16:32.436Z,88
2023-02-06T05:17:31.800Z,89
2023-02-06T05:18:32.046Z,89
2023-02-06T05:19:32.104Z,89
2023-02-06T05:20:32.074Z,89
2023-02-06T05:21:31.793Z,89
2023-02-06T05:22:32.070Z,89
2023-02-06T05:23:32.022Z,89
2023-02-06T05:24:32.042Z,89
2023-02-06T05:25:31.768Z,89
2023-02-06T05:26:32.075Z,89
2023-02-06T05:27:32.024Z,89
2023-02-06T05:28:32.034Z,89
2023-02-06T05:29:31.806Z,89
2023-02-06T05:30:37.632Z,89
2023-02-06T05:31:32.216Z,89
2023-02-06T05:32:32.072Z,89
2023-02-06T05:33:31.816Z,89
2023-02-06T05:34:32.400Z,89
2023-02-06T05:35:32.030Z,89
2023-02-06T05:36:32.053Z,89
2023-02-06T05:37:31.781Z,88
2023-02-06T05:38:32.045Z,88
2023-02-06T05:39:32.096Z,88
2023-02-06T05:40:32.034Z,88
2023-02-06T05:41:31.836Z,88
2023-02-06T05:42:34.645Z,88
2023-02-06T05:43:32.110Z,89
2023-02-06T05:44:32.091Z,88
2023-02-06T05:45:31.760Z,88
2023-02-06T05:46:32.085Z,89
2023-02-06T05:47:32.031Z,88
2023-02-06T05:48:32.024Z,88
2023-02-06T05:49:31.809Z,89
2023-02-06T05:50:32.497Z,88
2023-02-06T05:51:32.052Z,88
2023-02-06T05:52:32.069Z,88
2023-02-06T05:53:31.818Z,88
2023-02-06T05:54:32.116Z,88
2023-02-06T05:55:32.088Z,88
2023-02-06T05:56:32.082Z,88
2023-02-06T05:57:31.779Z,88
2023-02-06T05:58:32.055Z,88
2023-02-06T05:59:32.056Z,88
2023-02-06T06:00:32.063Z,88
2023-02-06T06:01:31.798Z,88
2023-02-06T06:02:32.056Z,88
2023-02-06T06:03:33.468Z,88
2023-02-06T06:04:32.037Z,88
2023-02-06T06:05:31.805Z,88
2023-02-06T06:06:32.218Z,88
2023-02-06T06:07:32.057Z,88
2023-02-06T06:08:32.152Z,88
2023-02-06T06:09:31.818Z,88
2023-02-06T06:10:33.537Z,88
2023-02-06T06:11:32.048Z,88
2023-02-06T06:12:32.124Z,88
2023-02-06T06:13:31.812Z,88
2023-02-06T06:14:32.034Z,88
2023-02-06T06:15:32.055Z,88
2023-02-06T06:16:32.072Z,88
2023-02-06T06:17:31.789Z,88
2023-02-06T06:18:32.116Z,88
2023-02-06T06:19:32.087Z,88
2023-02-06T06:20:32.124Z,88
2023-02-06T06:21:31.813Z,88
2023-02-06T06:22:32.053Z,88
2023-02-06T06:23:32.188Z,89
2023-02-06T06:24:32.052Z,89
2023-02-06T06:25:31.831Z,89
2023-02-06T06:26:32.217Z,88
2023-02-06T06:27:32.079Z,89
2023-02-06T06:28:32.090Z,89
2023-02-06T06:29:31.815Z,89
2023-02-06T06:30:33.798Z,89
2023-02-06T06:31:32.182Z,88
2023-02-06T06:32:32.040Z,89
2023-02-06T06:33:31.792Z,88
2023-02-06T06:34:32.156Z,88
2023-02-06T06:35:32.092Z,89
2023-02-06T06:36:32.075Z,89
2023-02-06T06:37:31.836Z,89
2023-02-06T06:38:32.024Z,89
2023-02-06T06:39:32.114Z,89
2023-02-06T06:40:32.221Z,89
2023-02-06T06:41:31.829Z,89
2023-02-06T06:42:32.040Z,89
2023-02-06T06:43:32.051Z,89
2023-02-06T06:44:32.118Z,89
2023-02-06T06:45:31.933Z,89
2023-02-06T06:46:32.054Z,89
2023-02-06T06:47:32.052Z,89
2023-02-06T06:48:32.092Z,89
2023-02-06T06:49:31.795Z,89
2023-02-06T06:50:32.032Z,89
2023-02-06T06:51:32.055Z,89
2023-02-06T06:52:32.060Z,89
2023-02-06T06:53:31.925Z,89
2023-02-06T06:54:32.329Z,89
2023-02-06T06:55:32.079Z,89
2023-02-06T06:56:32.070Z,88
2023-02-06T06:57:31.828Z,88
2023-02-06T06:58:32.106Z,89
2023-02-06T06:59:32.256Z,89
2023-02-06T07:00:32.096Z,88
2023-02-06T07:01:31.890Z,89
2023-02-06T07:02:32.116Z,89
2023-02-06T07:03:32.057Z,89
2023-02-06T07:04:32.104Z,89
2023-02-06T07:05:31.831Z,89
2023-02-06T07:06:32.071Z,89
2023-02-06T07:07:32.110Z,89
2023-02-06T07:08:32.135Z,89
2023-02-06T07:09:31.966Z,89
2023-02-06T07:10:32.408Z,89
2023-02-06T07:11:32.062Z,89
2023-02-06T07:12:32.031Z,89
2023-02-06T07:13:31.857Z,89
2023-02-06T07:14:32.074Z,89
2023-02-06T07:15:32.234Z,89
2023-02-06T07:16:32.116Z,89
2023-02-06T07:17:31.845Z,89
2023-02-06T07:18:32.037Z,89
2023-02-06T07:19:32.054Z,89
2023-02-06T07:20:32.107Z,89
2023-02-06T07:21:31.764Z,89
2023-02-06T07:22:32.072Z,89
2023-02-06T07:23:32.037Z,89
2023-02-06T07:24:32.047Z,89
2023-02-06T07:25:31.859Z,89
2023-02-06T07:26:32.102Z,88
2023-02-06T07:27:32.040Z,88
2023-02-06T07:28:32.064Z,88
2023-02-06T07:29:31.876Z,88
2023-02-06T07:30:32.060Z,88
2023-02-06T07:31:32.086Z,88
2023-02-06T07:32:32.114Z,88
2023-02-06T07:33:31.816Z,88
2023-02-06T07:34:32.109Z,88
2023-02-06T07:35:32.045Z,88
2023-02-06T07:36:32.060Z,88
2023-02-06T07:37:31.808Z,88
2023-02-06T07:38:32.210Z,88
2023-02-06T07:39:32.091Z,88
2023-02-06T07:40:44.170Z,88
2023-02-06T07:41:31.824Z,88
2023-02-06T07:42:32.088Z,88
2023-02-06T07:43:32.041Z,88
2023-02-06T07:44:32.061Z,88
2023-02-06T07:45:31.821Z,88
2023-02-06T07:46:32.064Z,88
2023-02-06T07:47:32.054Z,88
2023-02-06T07:48:32.043Z,88
2023-02-06T07:49:31.850Z,88
2023-02-06T07:50:32.070Z,88
2023-02-06T07:51:32.031Z,88
2023-02-06T07:52:32.064Z,88
2023-02-06T07:53:31.818Z,88
2023-02-06T07:54:32.115Z,88
2023-02-06T07:55:32.037Z,88
2023-02-06T07:56:32.033Z,88
2023-02-06T07:57:31.803Z,88
2023-02-06T07:58:32.055Z,88
2023-02-06T07:59:32.062Z,88
2023-02-06T08:00:32.142Z,87
2023-02-06T08:01:32.179Z,87
2023-02-06T08:02:32.150Z,87
2023-02-06T08:03:32.082Z,87
2023-02-06T08:04:32.074Z,87
2023-02-06T08:05:31.818Z,87
2023-02-06T08:06:32.109Z,87
2023-02-06T08:07:32.097Z,87
2023-02-06T08:08:32.116Z,87
2023-02-06T08:09:31.811Z,87
2023-02-06T08:10:32.080Z,87
2023-02-06T08:11:32.037Z,87
2023-02-06T08:12:32.070Z,87
2023-02-06T08:13:31.886Z,87
2023-02-06T08:14:32.050Z,87
2023-02-06T08:15:32.065Z,87
2023-02-06T08:16:32.117Z,86
2023-02-06T08:17:31.942Z,86
2023-02-06T08:18:32.066Z,86
2023-02-06T08:19:32.063Z,86
2023-02-06T08:20:32.105Z,86
2023-02-06T08:21:31.847Z,86
2023-02-06T08:22:32.057Z,86
2023-02-06T08:23:32.034Z,86
2023-02-06T08:24:32.269Z,86
2023-02-06T08:25:32.051Z,86
2023-02-06T08:26:32.037Z,86
2023-02-06T08:27:32.027Z,86
2023-02-06T08:28:32.053Z,86
2023-02-06T08:29:31.819Z,86
2023-02-06T08:30:32.120Z,86
2023-02-06T08:31:32.163Z,86
2023-02-06T08:32:32.071Z,86
2023-02-06T08:33:31.860Z,86
2023-02-06T08:34:32.015Z,86
2023-02-06T08:35:32.057Z,86
2023-02-06T08:36:32.135Z,86
2023-02-06T08:37:31.796Z,85
2023-02-06T08:38:32.032Z,85
2023-02-06T08:39:32.025Z,85
2023-02-06T08:40:32.077Z,85
2023-02-06T08:41:31.803Z,85
2023-02-06T08:42:32.036Z,85
2023-02-06T08:43:33.191Z,85
2023-02-06T08:44:32.129Z,85
2023-02-06T08:45:31.850Z,85
2023-02-06T08:46:32.039Z,85
2023-02-06T08:47:32.117Z,85
2023-02-06T08:48:32.081Z,84
2023-02-06T08:49:31.820Z,84
2023-02-06T08:50:32.037Z,84
2023-02-06T08:51:32.130Z,84
2023-02-06T08:52:32.060Z,84
2023-02-06T08:53:31.860Z,84
2023-02-06T08:54:34.782Z,84
2023-02-06T08:55:32.122Z,84
2023-02-06T08:56:32.149Z,84
2023-02-06T08:57:31.820Z,84
2023-02-06T08:58:32.097Z,84
2023-02-06T08:59:32.012Z,83
2023-02-06T09:00:32.064Z,83
2023-02-06T09:01:32.137Z,83
2023-02-06T09:02:32.048Z,83
2023-02-06T09:03:32.049Z,83
2023-02-06T09:04:32.056Z,82
2023-02-06T09:05:35.216Z,82
2023-02-06T09:06:32.094Z,82
2023-02-06T09:07:32.053Z,81
2023-02-06T09:08:32.075Z,81
2023-02-06T09:09:31.793Z,80
2023-02-06T09:10:32.033Z,80
2023-02-06T09:11:32.022Z,80
2023-02-06T09:12:32.029Z,79
2023-02-06T09:13:31.778Z,78
2023-02-06T09:14:32.030Z,78
2023-02-06T09:15:32.082Z,77
2023-02-06T09:16:32.060Z,77
2023-02-06T09:17:31.891Z,76
2023-02-06T09:18:32.069Z,75
2023-02-06T09:19:31.973Z,75
2023-02-06T09:20:32.052Z,75
2023-02-06T09:21:31.849Z,75
2023-02-06T09:22:32.062Z,76
2023-02-06T09:23:32.020Z,76
2023-02-06T09:24:32.031Z,75
2023-02-06T09:25:31.792Z,76
2023-02-06T09:26:32.067Z,75
2023-02-06T09:27:32.015Z,75
2023-02-06T09:28:32.040Z,75
2023-02-06T09:29:32.208Z,75
2023-02-06T09:30:32.066Z,74
2023-02-06T09:31:32.104Z,75
2023-02-06T09:32:32.196Z,75
2023-02-06T09:33:31.843Z,76
2023-02-06T09:34:32.078Z,76
2023-02-06T09:35:32.046Z,76
2023-02-06T09:36:32.041Z,75
2023-02-06T09:37:31.794Z,75
2023-02-06T09:38:32.053Z,75
2023-02-06T09:39:32.025Z,74
2023-02-06T09:40:32.046Z,74
2023-02-06T09:41:31.766Z,75
2023-02-06T09:42:32.042Z,74
2023-02-06T09:43:32.099Z,74
2023-02-06T09:44:32.043Z,74
2023-02-06T09:45:31.806Z,73
2023-02-06T09:46:32.060Z,73
2023-02-06T09:47:32.022Z,74
2023-02-06T09:48:32.065Z,74
2023-02-06T09:49:31.792Z,74
2023-02-06T09:50:33.047Z,74
2023-02-06T09:51:32.004Z,74
2023-02-06T09:52:32.052Z,73
2023-02-06T09:53:31.875Z,72
2023-02-06T09:54:32.049Z,73
2023-02-06T09:55:32.013Z,72
2023-02-06T09:56:32.071Z,70
2023-02-06T09:57:31.787Z,70
2023-02-06T09:58:32.040Z,71
2023-02-06T09:59:32.010Z,70
2023-02-06T10:00:32.051Z,69
2023-02-06T10:01:31.746Z,69
2023-02-06T10:02:32.040Z,70
2023-02-06T10:03:32.012Z,70
2023-02-06T10:04:32.124Z,70
2023-02-06T10:05:31.814Z,71
2023-02-06T10:06:32.006Z,71
2023-02-06T10:07:31.997Z,72
2023-02-06T10:08:34.283Z,71
2023-02-06T10:09:31.805Z,70
2023-02-06T10:10:32.035Z,70
2023-02-06T10:11:32.018Z,70
2023-02-06T10:12:32.041Z,69
2023-02-06T10:13:31.800Z,71
2023-02-06T10:14:32.022Z,71
2023-02-06T10:15:32.041Z,71
2023-02-06T10:16:32.124Z,71
2023-02-06T10:17:31.762Z,70
2023-02-06T10:18:32.044Z,72
2023-02-06T10:19:31.996Z,71
2023-02-06T10:20:32.018Z,71
2023-02-06T10:21:31.773Z,72
2023-02-06T10:22:32.067Z,72
2023-02-06T10:23:31.993Z,73
2023-02-06T10:24:32.038Z,73
2023-02-06T10:25:31.771Z,73
2023-02-06T10:26:32.018Z,73
2023-02-06T10:27:32.008Z,73
2023-02-06T10:28:32.060Z,73
2023-02-06T10:29:31.886Z,73
2023-02-06T10:30:32.036Z,73
2023-02-06T10:31:32.161Z,73
2023-02-06T10:32:32.203Z,73
2023-02-06T10:33:31.716Z,73
2023-02-06T10:34:32.021Z,73
2023-02-06T10:35:32.015Z,74
2023-02-06T10:36:32.066Z,74
2023-02-06T10:37:31.766Z,74
2023-02-06T10:38:32.075Z,73
2023-02-06T10:39:32.064Z,74
2023-02-06T10:40:32.039Z,74
2023-02-06T10:41:31.869Z,74
2023-02-06T10:42:32.136Z,74
2023-02-06T10:43:31.993Z,74
2023-02-06T10:44:32.763Z,74
2023-02-06T10:45:31.761Z,74
2023-02-06T10:46:32.088Z,74
2023-02-06T10:47:32.082Z,74
2023-02-06T10:48:32.042Z,74
2023-02-06T10:49:31.751Z,74
2023-02-06T10:50:32.091Z,74
2023-02-06T10:51:32.080Z,74
2023-02-06T10:52:32.332Z,74
2023-02-06T10:53:31.797Z,74
2023-02-06T10:54:32.099Z,74
2023-02-06T10:55:32.011Z,74
2023-02-06T10:56:32.089Z,74
2023-02-06T10:57:31.770Z,74
2023-02-06T10:58:32.041Z,74
2023-02-06T10:59:32.004Z,75
2023-02-06T11:00:33.428Z,75
2023-02-06T11:01:31.826Z,75
2023-02-06T11:02:32.224Z,75
2023-02-06T11:03:32.008Z,75
2023-02-06T11:04:32.021Z,74
2023-02-06T11:05:31.810Z,75
2023-02-06T11:06:32.071Z,75
2023-02-06T11:07:32.228Z,75
2023-02-06T11:08:32.037Z,75
2023-02-06T11:09:31.772Z,75
2023-02-06T11:10:32.027Z,75
2023-02-06T11:11:32.033Z,75
2023-02-06T11:12:32.116Z,75
2023-02-06T11:13:31.816Z,76
2023-02-06T11:14:32.036Z,76
2023-02-06T11:15:32.022Z,76
2023-02-06T11:16:32.118Z,76
2023-02-06T11:17:31.749Z,76
2023-02-06T11:18:32.039Z,75
2023-02-06T11:19:32.021Z,75
2023-02-06T11:20:32.013Z,76
2023-02-06T11:21:31.727Z,76
2023-02-06T11:22:34.872Z,76
2023-02-06T11:23:32.056Z,76
2023-02-06T11:24:32.033Z,75
2023-02-06T11:25:31.761Z,75
2023-02-06T11:26:32.176Z,75
2023-02-06T11:27:32.063Z,75
2023-02-06T11:28:32.052Z,76
2023-02-06T11:29:31.735Z,76
2023-02-06T11:30:32.176Z,77
2023-02-06T11:31:32.049Z,77
2023-02-06T11:32:32.045Z,77
2023-02-06T11:33:31.786Z,77
2023-02-06T11:34:32.033Z,77
2023-02-06T11:35:32.042Z,77
2023-02-06T11:36:32.071Z,77
2023-02-06T11:37:32.407Z,77
2023-02-06T11:38:32.142Z,76
2023-02-06T11:39:32.053Z,76
2023-02-06T11:40:32.061Z,76
2023-02-06T11:41:31.737Z,76
2023-02-06T11:42:32.054Z,76
2023-02-06T11:43:32.022Z,76
2023-02-06T11:44:32.052Z,76
2023-02-06T11:45:31.778Z,75
2023-02-06T11:46:32.035Z,75
2023-02-06T11:47:32.022Z,75
2023-02-06T11:48:32.016Z,74
2023-02-06T11:49:31.800Z,75
2023-02-06T11:50:32.021Z,75
2023-02-06T11:51:32.010Z,76
2023-02-06T11:52:32.043Z,76
2023-02-06T11:53:31.680Z,75
2023-02-06T11:54:32.015Z,75
2023-02-06T11:55:32.038Z,75
2023-02-06T11:56:32.151Z,75
2023-02-06T11:57:31.731Z,75
2023-02-06T11:58:32.186Z,74
2023-02-06T11:59:31.988Z,74
2023-02-06T12:00:32.038Z,73
2023-02-06T12:01:31.714Z,73
2023-02-06T12:02:32.141Z,74
2023-02-06T12:03:32.206Z,74
2023-02-06T12:04:32.018Z,74
2023-02-06T12:05:31.721Z,73
2023-02-06T12:06:32.059Z,73
2023-02-06T12:07:32.040Z,72
2023-02-06T12:08:32.036Z,72
2023-02-06T12:09:31.701Z,72
2023-02-06T12:10:33.187Z,71
2023-02-06T12:11:32.008Z,70
2023-02-06T12:12:32.083Z,70
2023-02-06T12:13:31.721Z,70
2023-02-06T12:14:32.469Z,70
2023-02-06T12:15:44.945Z,70
2023-02-06T12:16:32.062Z,70
2023-02-06T12:17:31.701Z,70
2023-02-06T12:18:32.010Z,71
2023-02-06T12:19:32.047Z,71
2023-02-06T12:20:32.024Z,70
2023-02-06T12:21:31.720Z,70
2023-02-06T12:22:32.025Z,71
2023-02-06T12:23:32.020Z,71
2023-02-06T12:24:32.023Z,71
2023-02-06T12:25:31.677Z,70
2023-02-06T12:26:32.015Z,70
2023-02-06T12:27:32.002Z,71
2023-02-06T12:28:31.994Z,71
2023-02-06T12:29:31.712Z,70
2023-02-06T12:30:32.016Z,71
2023-02-06T12:31:32.292Z,71
2023-02-06T12:32:32.240Z,70
2023-02-06T12:33:31.753Z,70
2023-02-06T12:34:32.051Z,69
2023-02-06T12:35:32.031Z,69
2023-02-06T12:36:32.019Z,70
2023-02-06T12:37:31.721Z,70
2023-02-06T12:38:32.030Z,70
2023-02-06T12:39:31.979Z,70
2023-02-06T12:40:32.001Z,70
2023-02-06T12:41:31.732Z,71
2023-02-06T12:42:32.019Z,71
2023-02-06T12:43:32.007Z,71
2023-02-06T12:44:32.026Z,71
2023-02-06T12:45:31.735Z,72
2023-02-06T12:46:32.136Z,71
2023-02-06T12:47:32.009Z,72
2023-02-06T12:48:32.017Z,71
2023-02-06T12:49:31.677Z,72
2023-02-06T12:50:31.988Z,72
2023-02-06T12:51:32.013Z,72
2023-02-06T12:52:32.007Z,73
2023-02-06T12:53:31.670Z,73
2023-02-06T12:54:32.012Z,73
2023-02-06T12:55:32.017Z,73
2023-02-06T12:56:32.028Z,74
2023-02-06T12:57:31.669Z,74
2023-02-06T12:58:32.109Z,74
2023-02-06T12:59:32.014Z,75
2023-02-06T13:00:32.044Z,74
2023-02-06T13:01:34.345Z,73
2023-02-06T13:02:32.101Z,73
2023-02-06T13:03:31.994Z,73
2023-02-06T13:04:32.040Z,72
2023-02-06T13:05:31.839Z,72
2023-02-06T13:06:32.010Z,72
2023-02-06T13:07:49.677Z,72
2023-02-06T13:08:32.035Z,73
2023-02-06T13:09:31.671Z,73
2023-02-06T13:10:32.034Z,72
2023-02-06T13:11:32.190Z,72
2023-02-06T13:12:32.023Z,70
2023-02-06T13:13:31.643Z,70
2023-02-06T13:14:32.006Z,70
2023-02-06T13:15:32.118Z,70
2023-02-06T13:16:32.021Z,69
2023-02-06T13:17:31.796Z,69
2023-02-06T13:18:32.040Z,68
2023-02-06T13:19:32.039Z,68
2023-02-06T13:20:33.345Z,68
2023-02-06T13:21:31.681Z,67
2023-02-06T13:22:38.169Z,68
2023-02-06T13:23:32.013Z,67
2023-02-06T13:24:32.071Z,67
2023-02-06T13:25:31.681Z,66
2023-02-06T13:26:32.009Z,66
2023-02-06T13:27:31.977Z,66
2023-02-06T13:28:32.026Z,67
2023-02-06T13:29:31.714Z,67
2023-02-06T13:30:33.047Z,67
2023-02-06T13:31:32.171Z,68
2023-02-06T13:32:32.033Z,67
2023-02-06T13:33:31.651Z,67
2023-02-06T13:34:32.056Z,68
2023-02-06T13:35:32.134Z,67
2023-02-06T13:36:32.083Z,67
2023-02-06T13:37:31.662Z,66
2023-02-06T13:38:32.043Z,66
2023-02-06T13:39:32.043Z,66
2023-02-06T13:40:32.017Z,66
2023-02-06T13:41:31.624Z,66
2023-02-06T13:42:32.002Z,67
2023-02-06T13:43:32.037Z,67
2023-02-06T13:44:31.994Z,67
2023-02-06T13:45:31.744Z,67
2023-02-06T13:46:32.085Z,67
2023-02-06T13:47:32.034Z,67
2023-02-06T13:48:32.049Z,66
2023-02-06T13:49:31.704Z,67
2023-02-06T13:50:32.036Z,66
2023-02-06T13:51:32.101Z,66
2023-02-06T13:52:31.980Z,66
2023-02-06T13:53:31.705Z,66
2023-02-06T13:54:32.015Z,67
2023-02-06T13:55:32.020Z,67
2023-02-06T13:56:32.008Z,67
2023-02-06T13:57:38.803Z,67
2023-02-06T13:58:32.098Z,67
2023-02-06T13:59:32.005Z,67
2023-02-06T14:00:32.059Z,68
2023-02-06T14:01:34.917Z,70
2023-02-06T14:02:32.018Z,71
2023-02-06T14:03:32.063Z,70
2023-02-06T14:04:32.032Z,69
2023-02-06T14:05:32.166Z,70
2023-02-06T14:06:32.056Z,71
2023-02-06T14:07:32.028Z,70
2023-02-06T14:08:32.060Z,70
2023-02-06T14:09:31.640Z,70
2023-02-06T14:10:32.024Z,70
2023-02-06T14:11:32.044Z,70
2023-02-06T14:12:32.039Z,70
2023-02-06T14:13:31.883Z,70
2023-02-06T14:14:32.166Z,71
2023-02-06T14:15:31.992Z,71